CGDTH CYRJ-CYVO

Flight info

Callsign CGDTH
Flight time 1h 15m
Altitude 22000
Route CYRJ YOV CYVO
Aircraft B350/L-V/N

Departure

Time 2026-04-16 15:54
Airport Roberval Airport (CYRJ)

Arrival

Time 2026-04-16 17:09
Airport Val-d'Or Airport (CYVO)
Time Latitude Longitude Altitude Speed Heading
2026-04-16 15:40 48.52343 -72.26431 590 ft 0 kts 143°
2026-04-16 15:49 48.52343 -72.26430 590 ft 0 kts 143°
2026-04-16 15:50 48.52329 -72.26433 590 ft 12 kts 230°
2026-04-16 15:50 48.52251 -72.26610 590 ft 22 kts 236°
2026-04-16 15:50 48.52146 -72.26698 590 ft 14 kts 171°
2026-04-16 15:51 48.52061 -72.26628 590 ft 18 kts 146°
2026-04-16 15:51 48.51946 -72.26454 590 ft 29 kts 149°
2026-04-16 15:51 48.51748 -72.26244 590 ft 40 kts 143°
2026-04-16 15:51 48.51564 -72.26051 590 ft 22 kts 160°
2026-04-16 15:52 48.51497 -72.25977 590 ft 7 kts 48°
2026-04-16 15:52 48.51509 -72.25973 590 ft 0 kts 322°
2026-04-16 15:53 48.51543 -72.26013 590 ft 27 kts 321°
2026-04-16 15:53 48.51853 -72.26377 590 ft 83 kts 321°
2026-04-16 15:53 48.52432 -72.27096 611 ft 132 kts 317°
2026-04-16 15:53 48.53134 -72.28137 911 ft 148 kts 314°
2026-04-16 15:54 48.53881 -72.29305 1222 ft 161 kts 313°
2026-04-16 15:54 48.54695 -72.30562 1498 ft 169 kts 317°
2026-04-16 15:54 48.55394 -72.31961 1889 ft 168 kts 288°
2026-04-16 15:54 48.55479 -72.33095 2154 ft 165 kts 262°
2026-04-16 15:55 48.55055 -72.34698 2606 ft 164 kts 233°
2026-04-16 15:55 48.54304 -72.35994 3082 ft 164 kts 224°
2026-04-16 15:55 48.53501 -72.37197 3593 ft 162 kts 223°
2026-04-16 15:55 48.52439 -72.38742 4292 ft 157 kts 223°
2026-04-16 15:56 48.51909 -72.39509 4642 ft 156 kts 223°
2026-04-16 15:56 48.51310 -72.40847 5134 ft 157 kts 251°
2026-04-16 15:56 48.51306 -72.42506 5644 ft 160 kts 271°
2026-04-16 15:56 48.51468 -72.44145 6118 ft 160 kts 270°
2026-04-16 15:57 48.51585 -72.45800 6593 ft 158 kts 268°
2026-04-16 15:57 48.51639 -72.47455 7057 ft 159 kts 265°
2026-04-16 15:57 48.51642 -72.49137 7470 ft 161 kts 264°
2026-04-16 15:57 48.51616 -72.50826 7922 ft 161 kts 263°
2026-04-16 15:58 48.51572 -72.52509 8369 ft 160 kts 263°
2026-04-16 15:58 48.51519 -72.54205 8753 ft 162 kts 263°
2026-04-16 15:58 48.51458 -72.55912 9131 ft 164 kts 263°
2026-04-16 15:58 48.51391 -72.57637 9554 ft 164 kts 263°
2026-04-16 15:59 48.51256 -72.61043 10357 ft 162 kts 263°
2026-04-16 15:59 48.51187 -72.62731 10736 ft 161 kts 263°
2026-04-16 15:59 48.51117 -72.64419 11114 ft 161 kts 263°
2026-04-16 16:00 48.51047 -72.66103 11490 ft 159 kts 263°
2026-04-16 16:00 48.50979 -72.67739 11741 ft 160 kts 264°
2026-04-16 16:00 48.50905 -72.69438 12084 ft 164 kts 264°
2026-04-16 16:00 48.50833 -72.71126 12556 ft 159 kts 264°
2026-04-16 16:01 48.50762 -72.72799 12877 ft 161 kts 264°
2026-04-16 16:01 48.50689 -72.74498 13184 ft 164 kts 264°
2026-04-16 16:01 48.50616 -72.76203 13573 ft 162 kts 264°
2026-04-16 16:01 48.50544 -72.77893 13950 ft 161 kts 264°
2026-04-16 16:02 48.50472 -72.79570 14323 ft 160 kts 264°
2026-04-16 16:02 48.50398 -72.81243 14673 ft 160 kts 263°
2026-04-16 16:02 48.50325 -72.82921 15001 ft 160 kts 264°
2026-04-16 16:02 48.50251 -72.84593 15308 ft 160 kts 264°
2026-04-16 16:03 48.50177 -72.86283 15588 ft 162 kts 264°
2026-04-16 16:03 48.50103 -72.87963 15862 ft 163 kts 264°
2026-04-16 16:03 48.50027 -72.89682 16140 ft 164 kts 264°
2026-04-16 16:03 48.49951 -72.91407 16417 ft 165 kts 264°
2026-04-16 16:04 48.49874 -72.93133 16693 ft 165 kts 264°
2026-04-16 16:04 48.49797 -72.94866 16969 ft 165 kts 264°
2026-04-16 16:04 48.49719 -72.96600 17245 ft 165 kts 264°
2026-04-16 16:04 48.49641 -72.98332 17521 ft 165 kts 264°
2026-04-16 16:05 48.49563 -73.00059 17795 ft 165 kts 264°
2026-04-16 16:05 48.49485 -73.01784 18071 ft 165 kts 264°
2026-04-16 16:05 48.49407 -73.03485 18342 ft 164 kts 264°
2026-04-16 16:05 48.49328 -73.05220 18620 ft 164 kts 264°
2026-04-16 16:06 48.49250 -73.06913 18878 ft 164 kts 264°
2026-04-16 16:06 48.49171 -73.08632 19130 ft 164 kts 264°
2026-04-16 16:06 48.49092 -73.10355 19381 ft 165 kts 264°
2026-04-16 16:06 48.49012 -73.12075 19632 ft 166 kts 264°
2026-04-16 16:07 48.48928 -73.13847 19929 ft 171 kts 264°
2026-04-16 16:07 48.48843 -73.15643 20313 ft 172 kts 264°
2026-04-16 16:07 48.48758 -73.17445 20712 ft 172 kts 264°
2026-04-16 16:07 48.48673 -73.19249 21112 ft 172 kts 264°
2026-04-16 16:08 48.48589 -73.21024 21507 ft 172 kts 265°
2026-04-16 16:08 48.48501 -73.22870 21739 ft 181 kts 265°
2026-04-16 16:08 48.48409 -73.24809 21848 ft 189 kts 265°
2026-04-16 16:08 48.48313 -73.26830 21870 ft 198 kts 265°
2026-04-16 16:09 48.48214 -73.28940 21863 ft 205 kts 265°
2026-04-16 16:09 48.48111 -73.31120 21858 ft 211 kts 265°
2026-04-16 16:09 48.48005 -73.33355 21855 ft 216 kts 265°
2026-04-16 16:09 48.47896 -73.35634 21853 ft 219 kts 265°
2026-04-16 16:10 48.47786 -73.37936 21852 ft 221 kts 265°
2026-04-16 16:10 48.47674 -73.40260 21851 ft 223 kts 265°
2026-04-16 16:10 48.47561 -73.42594 21850 ft 224 kts 265°
2026-04-16 16:10 48.47447 -73.44937 21850 ft 225 kts 265°
2026-04-16 16:11 48.47333 -73.47267 21849 ft 226 kts 265°
2026-04-16 16:11 48.47216 -73.49624 21849 ft 226 kts 265°
2026-04-16 16:11 48.47097 -73.52019 21848 ft 226 kts 265°
2026-04-16 16:11 48.46980 -73.54366 21848 ft 228 kts 265°
2026-04-16 16:12 48.46859 -73.56760 21848 ft 230 kts 265°
2026-04-16 16:12 48.46737 -73.59182 21848 ft 233 kts 265°
2026-04-16 16:12 48.46613 -73.61633 21847 ft 235 kts 265°
2026-04-16 16:12 48.46488 -73.64107 21847 ft 237 kts 265°
2026-04-16 16:13 48.46361 -73.66593 21846 ft 238 kts 265°
2026-04-16 16:13 48.46234 -73.69084 21841 ft 239 kts 265°
2026-04-16 16:13 48.46105 -73.71594 21838 ft 240 kts 265°
2026-04-16 16:13 48.45975 -73.74112 21837 ft 241 kts 265°
2026-04-16 16:14 48.45845 -73.76630 21836 ft 241 kts 265°
2026-04-16 16:14 48.45713 -73.79154 21836 ft 242 kts 265°
2026-04-16 16:14 48.45581 -73.81683 21836 ft 242 kts 265°
2026-04-16 16:14 48.45448 -73.84208 21835 ft 241 kts 265°
2026-04-16 16:15 48.45317 -73.86690 21834 ft 240 kts 265°
2026-04-16 16:15 48.45184 -73.89200 21834 ft 240 kts 265°
2026-04-16 16:15 48.45052 -73.91693 21833 ft 237 kts 265°
2026-04-16 16:15 48.44922 -73.94129 21831 ft 229 kts 265°
2026-04-16 16:16 48.44796 -73.96502 21831 ft 225 kts 265°
2026-04-16 16:16 48.44670 -73.98840 21831 ft 223 kts 265°
2026-04-16 16:16 48.44546 -74.01158 21833 ft 221 kts 264°
2026-04-16 16:16 48.44424 -74.03448 21831 ft 218 kts 263°
2026-04-16 16:17 48.44301 -74.05708 21829 ft 215 kts 263°
2026-04-16 16:17 48.44179 -74.07944 21827 ft 212 kts 263°
2026-04-16 16:17 48.44059 -74.10119 21827 ft 210 kts 263°
2026-04-16 16:17 48.43938 -74.12307 21827 ft 209 kts 263°
2026-04-16 16:18 48.43817 -74.14481 21827 ft 208 kts 263°
2026-04-16 16:18 48.43696 -74.16645 21827 ft 207 kts 263°
2026-04-16 16:18 48.43574 -74.18812 21826 ft 207 kts 263°
2026-04-16 16:18 48.43454 -74.20970 21826 ft 206 kts 263°
2026-04-16 16:19 48.43333 -74.23122 21826 ft 206 kts 263°
2026-04-16 16:19 48.43212 -74.25268 21826 ft 206 kts 263°
2026-04-16 16:19 48.43091 -74.27413 21826 ft 206 kts 263°
2026-04-16 16:19 48.42969 -74.29559 21825 ft 205 kts 263°
2026-04-16 16:20 48.42847 -74.31701 21825 ft 205 kts 263°
2026-04-16 16:20 48.42727 -74.33818 21825 ft 205 kts 263°
2026-04-16 16:20 48.42605 -74.35957 21825 ft 205 kts 263°
2026-04-16 16:20 48.42481 -74.38101 21824 ft 205 kts 263°
2026-04-16 16:21 48.42358 -74.40242 21824 ft 205 kts 263°
2026-04-16 16:21 48.42235 -74.42380 21824 ft 205 kts 263°
2026-04-16 16:21 48.42110 -74.44525 21824 ft 205 kts 263°
2026-04-16 16:21 48.41985 -74.46667 21824 ft 206 kts 263°
2026-04-16 16:22 48.41861 -74.48813 21823 ft 206 kts 263°
2026-04-16 16:22 48.41736 -74.50959 21823 ft 206 kts 263°
2026-04-16 16:22 48.41610 -74.53098 21819 ft 206 kts 263°
2026-04-16 16:22 48.41483 -74.55252 21810 ft 206 kts 263°
2026-04-16 16:23 48.41356 -74.57407 21806 ft 206 kts 263°
2026-04-16 16:23 48.41229 -74.59554 21803 ft 206 kts 263°
2026-04-16 16:23 48.41103 -74.61681 21801 ft 206 kts 263°
2026-04-16 16:23 48.40973 -74.63858 21801 ft 206 kts 263°
2026-04-16 16:24 48.40844 -74.66013 21801 ft 207 kts 263°
2026-04-16 16:24 48.40716 -74.68148 21801 ft 207 kts 263°
2026-04-16 16:24 48.40587 -74.70297 21800 ft 205 kts 263°
2026-04-16 16:24 48.40459 -74.72419 21799 ft 201 kts 263°
2026-04-16 16:25 48.40337 -74.74468 21797 ft 192 kts 263°
2026-04-16 16:25 48.40220 -74.76425 21796 ft 184 kts 263°
2026-04-16 16:25 48.40107 -74.78310 21796 ft 178 kts 263°
2026-04-16 16:25 48.39995 -74.80137 21796 ft 172 kts 263°
2026-04-16 16:26 48.39887 -74.81908 21793 ft 168 kts 263°
2026-04-16 16:26 48.39780 -74.83639 21791 ft 164 kts 263°
2026-04-16 16:26 48.39675 -74.85336 21790 ft 161 kts 263°
2026-04-16 16:26 48.39572 -74.87004 21790 ft 159 kts 263°
2026-04-16 16:27 48.39470 -74.88645 21790 ft 157 kts 263°
2026-04-16 16:27 48.39369 -74.90263 21791 ft 155 kts 263°
2026-04-16 16:27 48.39269 -74.91871 21791 ft 153 kts 263°
2026-04-16 16:27 48.39170 -74.93457 21791 ft 152 kts 263°
2026-04-16 16:28 48.39072 -74.95034 21791 ft 151 kts 263°
2026-04-16 16:28 48.38973 -74.96602 21792 ft 150 kts 263°
2026-04-16 16:28 48.38876 -74.98156 21792 ft 149 kts 263°
2026-04-16 16:28 48.38778 -74.99708 21792 ft 148 kts 263°
2026-04-16 16:29 48.38681 -75.01252 21791 ft 148 kts 263°
2026-04-16 16:29 48.38583 -75.02790 21792 ft 148 kts 263°
2026-04-16 16:29 48.38487 -75.04306 21792 ft 147 kts 263°
2026-04-16 16:29 48.38390 -75.05840 21792 ft 147 kts 263°
2026-04-16 16:30 48.38293 -75.07371 21792 ft 147 kts 263°
2026-04-16 16:30 48.38196 -75.08900 21792 ft 146 kts 263°
2026-04-16 16:30 48.38102 -75.10389 21789 ft 140 kts 263°
2026-04-16 16:30 48.38016 -75.11789 21781 ft 128 kts 263°
2026-04-16 16:31 48.37935 -75.13081 21781 ft 127 kts 262°
2026-04-16 16:31 48.37829 -75.14554 21810 ft 155 kts 262°
2026-04-16 16:31 48.37709 -75.16283 21816 ft 176 kts 263°
2026-04-16 16:31 48.37582 -75.18195 21809 ft 191 kts 263°
2026-04-16 16:32 48.37450 -75.20244 21803 ft 202 kts 263°
2026-04-16 16:32 48.37305 -75.22389 21799 ft 210 kts 263°
2026-04-16 16:32 48.36829 -75.24479 21794 ft 219 kts 239°
2026-04-16 16:32 48.35647 -75.26040 21798 ft 234 kts 220°
2026-04-16 16:33 48.34281 -75.27342 21798 ft 237 kts 220°
2026-04-16 16:33 48.32944 -75.28829 21796 ft 235 kts 228°
2026-04-16 16:33 48.31864 -75.30603 21795 ft 231 kts 240°
2026-04-16 16:33 48.31088 -75.32719 21796 ft 231 kts 247°
2026-04-16 16:34 48.30433 -75.34930 21795 ft 232 kts 249°
2026-04-16 16:34 48.29815 -75.37166 21794 ft 233 kts 250°
2026-04-16 16:34 48.29210 -75.39426 21793 ft 233 kts 250°
2026-04-16 16:34 48.28626 -75.41695 21793 ft 233 kts 251°
2026-04-16 16:35 48.28075 -75.43990 21793 ft 234 kts 252°
2026-04-16 16:35 48.27576 -75.46308 21793 ft 234 kts 254°
2026-04-16 16:35 48.27141 -75.48661 21793 ft 234 kts 256°
2026-04-16 16:35 48.26787 -75.51041 21793 ft 234 kts 259°
2026-04-16 16:36 48.26522 -75.53449 21793 ft 234 kts 262°
2026-04-16 16:36 48.26351 -75.55888 21793 ft 235 kts 264°
2026-04-16 16:36 48.26274 -75.58309 21792 ft 235 kts 267°
2026-04-16 16:36 48.26283 -75.60775 21789 ft 238 kts 269°
2026-04-16 16:37 48.26368 -75.63262 21788 ft 240 kts 271°
2026-04-16 16:37 48.26514 -75.65781 21630 ft 246 kts 273°
2026-04-16 16:37 48.26710 -75.68379 21370 ft 254 kts 274°
2026-04-16 16:37 48.26937 -75.71056 21077 ft 261 kts 274°
2026-04-16 16:38 48.27170 -75.73780 20779 ft 265 kts 274°
2026-04-16 16:38 48.27384 -75.76549 20479 ft 268 kts 274°
2026-04-16 16:38 48.27560 -75.79350 20179 ft 270 kts 272°
2026-04-16 16:38 48.27679 -75.82168 19880 ft 271 kts 270°
2026-04-16 16:39 48.27728 -75.84990 19580 ft 270 kts 268°
2026-04-16 16:39 48.27697 -75.87806 19279 ft 269 kts 266°
2026-04-16 16:39 48.27585 -75.90581 18981 ft 268 kts 264°
2026-04-16 16:39 48.27395 -75.93376 18680 ft 268 kts 262°
2026-04-16 16:40 48.27137 -75.96154 18380 ft 268 kts 261°
2026-04-16 16:40 48.26825 -75.98911 18080 ft 268 kts 259°
2026-04-16 16:40 48.26480 -76.01660 17781 ft 268 kts 257°
2026-04-16 16:40 48.26152 -76.04408 17480 ft 267 kts 257°
2026-04-16 16:41 48.25853 -76.07170 17179 ft 267 kts 258°
2026-04-16 16:41 48.25663 -76.08995 16980 ft 267 kts 258°
2026-04-16 16:41 48.25387 -76.11749 16680 ft 267 kts 258°
2026-04-16 16:41 48.25126 -76.14507 16379 ft 267 kts 259°
2026-04-16 16:42 48.24815 -76.18167 15982 ft 267 kts 261°
2026-04-16 16:42 48.24615 -76.20930 15682 ft 266 kts 262°
2026-04-16 16:42 48.24498 -76.22795 15478 ft 265 kts 262°
2026-04-16 16:42 48.24355 -76.25546 15178 ft 264 kts 263°
2026-04-16 16:43 48.24245 -76.28285 14878 ft 263 kts 264°
2026-04-16 16:43 48.24163 -76.31026 14576 ft 262 kts 265°
2026-04-16 16:43 48.24105 -76.33753 14276 ft 262 kts 266°
2026-04-16 16:43 48.24063 -76.36480 13976 ft 261 kts 266°
2026-04-16 16:44 48.24029 -76.39173 13679 ft 261 kts 267°
2026-04-16 16:44 48.23991 -76.41904 13379 ft 262 kts 267°
2026-04-16 16:44 48.23943 -76.44639 13079 ft 263 kts 267°
2026-04-16 16:44 48.23879 -76.47378 12779 ft 262 kts 266°
2026-04-16 16:45 48.23797 -76.50102 12479 ft 262 kts 266°
2026-04-16 16:45 48.23695 -76.52828 12177 ft 261 kts 266°
2026-04-16 16:45 48.23570 -76.55539 11877 ft 261 kts 265°
2026-04-16 16:45 48.23427 -76.58241 11579 ft 261 kts 265°
2026-04-16 16:46 48.23272 -76.60967 11277 ft 262 kts 264°
2026-04-16 16:46 48.23108 -76.63686 10977 ft 261 kts 264°
2026-04-16 16:46 48.22944 -76.66392 10676 ft 260 kts 264°
2026-04-16 16:46 48.22788 -76.69074 10375 ft 256 kts 264°
2026-04-16 16:47 48.22641 -76.71728 10074 ft 254 kts 265°
2026-04-16 16:47 48.22506 -76.74368 9773 ft 253 kts 265°
2026-04-16 16:47 48.22380 -76.77002 9473 ft 253 kts 265°
2026-04-16 16:47 48.22261 -76.79633 9172 ft 252 kts 265°
2026-04-16 16:48 48.22143 -76.82265 8872 ft 252 kts 265°
2026-04-16 16:48 48.22023 -76.84889 8570 ft 252 kts 265°
2026-04-16 16:48 48.21902 -76.87482 8274 ft 252 kts 265°
2026-04-16 16:48 48.21775 -76.90139 7971 ft 252 kts 265°
2026-04-16 16:49 48.21649 -76.92726 7675 ft 253 kts 265°
2026-04-16 16:49 48.21519 -76.95360 7375 ft 253 kts 265°
2026-04-16 16:49 48.21389 -76.97984 7073 ft 253 kts 265°
2026-04-16 16:49 48.21259 -77.00607 6774 ft 253 kts 265°
2026-04-16 16:50 48.21132 -77.03245 6474 ft 253 kts 265°
2026-04-16 16:50 48.21004 -77.05868 6171 ft 252 kts 265°
2026-04-16 16:50 48.20875 -77.08475 5872 ft 250 kts 265°
2026-04-16 16:50 48.20745 -77.11075 5570 ft 249 kts 265°
2026-04-16 16:51 48.20616 -77.13660 5271 ft 249 kts 265°
2026-04-16 16:51 48.20484 -77.16260 4969 ft 249 kts 265°
2026-04-16 16:51 48.20346 -77.18853 4669 ft 250 kts 265°
2026-04-16 16:51 48.20205 -77.21445 4369 ft 248 kts 264°
2026-04-16 16:52 48.20067 -77.24011 4104 ft 244 kts 264°
2026-04-16 16:52 48.19939 -77.26468 3978 ft 235 kts 265°
2026-04-16 16:52 48.19817 -77.28902 3923 ft 227 kts 265°
2026-04-16 16:52 48.19699 -77.31197 3913 ft 221 kts 265°
2026-04-16 16:53 48.19584 -77.33461 3911 ft 215 kts 265°
2026-04-16 16:53 48.19527 -77.35674 3906 ft 210 kts 269°
2026-04-16 16:53 48.19529 -77.37717 3902 ft 205 kts 269°
2026-04-16 16:53 48.19522 -77.39945 3901 ft 200 kts 268°
2026-04-16 16:54 48.19493 -77.41963 3972 ft 178 kts 267°
2026-04-16 16:54 48.19440 -77.43700 3906 ft 163 kts 265°
2026-04-16 16:54 48.19355 -77.45380 3901 ft 158 kts 264°
2026-04-16 16:54 48.19247 -77.47036 3906 ft 162 kts 263°
2026-04-16 16:55 48.19129 -77.48732 3908 ft 165 kts 263°
2026-04-16 16:55 48.19012 -77.50433 3906 ft 167 kts 263°
2026-04-16 16:55 48.18902 -77.52193 3905 ft 168 kts 264°
2026-04-16 16:55 48.18807 -77.53920 3904 ft 169 kts 264°
2026-04-16 16:56 48.18715 -77.55679 3902 ft 169 kts 264°
2026-04-16 16:56 48.18623 -77.57440 3900 ft 170 kts 264°
2026-04-16 16:56 48.18530 -77.59201 3900 ft 170 kts 264°
2026-04-16 16:56 48.18438 -77.60960 3900 ft 170 kts 265°
2026-04-16 16:57 48.18344 -77.62727 3900 ft 170 kts 265°
2026-04-16 16:57 48.18512 -77.66208 3890 ft 171 kts 299°
2026-04-16 16:57 48.19420 -77.67324 3900 ft 173 kts 337°
2026-04-16 16:58 48.20588 -77.67757 3913 ft 174 kts 347°
2026-04-16 16:58 48.21769 -77.68186 3902 ft 175 kts 344°
2026-04-16 16:58 48.22922 -77.68696 3899 ft 175 kts 338°
2026-04-16 16:58 48.24054 -77.69416 3900 ft 174 kts 334°
2026-04-16 16:59 48.25140 -77.70167 3898 ft 174 kts 334°
2026-04-16 16:59 48.26213 -77.71011 3900 ft 174 kts 327°
2026-04-16 16:59 48.27229 -77.71992 3898 ft 174 kts 325°
2026-04-16 16:59 48.28233 -77.73002 3899 ft 174 kts 325°
2026-04-16 17:00 48.29176 -77.74128 3902 ft 173 kts 317°
2026-04-16 17:00 48.30041 -77.75383 3900 ft 173 kts 311°
2026-04-16 17:00 48.30815 -77.76761 3902 ft 172 kts 307°
2026-04-16 17:00 48.31508 -77.78226 3901 ft 172 kts 301°
2026-04-16 17:01 48.32027 -77.79834 3901 ft 171 kts 290°
2026-04-16 17:01 48.32382 -77.81540 3901 ft 171 kts 282°
2026-04-16 17:01 48.32592 -77.83291 3903 ft 170 kts 277°
2026-04-16 17:01 48.32651 -77.85064 3904 ft 170 kts 269°
2026-04-16 17:02 48.32476 -77.86822 3904 ft 170 kts 257°
2026-04-16 17:02 48.32115 -77.88504 3903 ft 170 kts 245°
2026-04-16 17:02 48.31521 -77.90029 3903 ft 170 kts 234°
2026-04-16 17:02 48.30761 -77.91386 3902 ft 170 kts 227°
2026-04-16 17:03 48.29746 -77.92239 3893 ft 170 kts 193°
2026-04-16 17:03 48.28603 -77.91982 3904 ft 172 kts 156°
2026-04-16 17:03 48.27618 -77.90960 3913 ft 173 kts 142°
2026-04-16 17:03 48.26696 -77.89783 3904 ft 174 kts 140°
2026-04-16 17:04 48.25782 -77.88576 3901 ft 174 kts 140°
2026-04-16 17:04 48.24873 -77.87371 3902 ft 174 kts 140°
2026-04-16 17:04 48.23967 -77.86165 3899 ft 174 kts 139°
2026-04-16 17:04 48.23061 -77.84952 3903 ft 175 kts 139°
2026-04-16 17:05 48.22152 -77.83733 3897 ft 175 kts 140°
2026-04-16 17:05 48.21166 -77.82687 3897 ft 173 kts 156°
2026-04-16 17:05 48.20035 -77.82186 3915 ft 172 kts 170°
2026-04-16 17:05 48.18833 -77.81933 3782 ft 175 kts 175°
2026-04-16 17:06 48.17635 -77.81746 3504 ft 172 kts 175°
2026-04-16 17:06 48.16446 -77.81539 3179 ft 171 kts 172°
2026-04-16 17:06 48.15285 -77.81249 2879 ft 164 kts 169°
2026-04-16 17:06 48.14224 -77.80916 2593 ft 149 kts 167°
2026-04-16 17:07 48.13304 -77.80606 2488 ft 118 kts 167°
2026-04-16 17:07 48.12481 -77.80330 2353 ft 127 kts 168°
2026-04-16 17:07 48.11602 -77.80063 2208 ft 130 kts 168°
2026-04-16 17:07 48.10706 -77.79805 2003 ft 132 kts 168°
2026-04-16 17:08 48.09814 -77.79560 1810 ft 128 kts 168°
2026-04-16 17:08 48.08939 -77.79313 1634 ft 128 kts 168°
2026-04-16 17:08 48.08065 -77.79051 1464 ft 128 kts 168°
2026-04-16 17:08 48.07187 -77.78790 1293 ft 128 kts 169°
2026-04-16 17:09 48.06336 -77.78550 1114 ft 119 kts 169°
2026-04-16 17:09 48.05645 -77.78350 1112 ft 85 kts 169°
2026-04-16 17:09 48.05223 -77.78225 1111 ft 43 kts 170°
2026-04-16 17:09 48.05019 -77.78173 1111 ft 5 kts 168°
2026-04-16 17:10 48.05018 -77.78172 1111 ft 0 kts 168°
2026-04-16 17:10 48.05007 -77.78164 1111 ft 8 kts 134°
2026-04-16 17:10 48.04989 -77.78196 1111 ft 5 kts 349°
2026-04-16 17:10 48.05085 -77.78212 1111 ft 26 kts 353°
2026-04-16 17:11 48.05277 -77.78262 1111 ft 25 kts 335°
2026-04-16 17:11 48.05305 -77.78385 1111 ft 11 kts 261°
2026-04-16 17:11 48.05289 -77.78525 1111 ft 12 kts 256°
2026-04-16 17:11 48.05268 -77.78565 1111 ft 5 kts 213°
2026-04-16 17:12 48.05312 -77.78697 1111 ft 10 kts 269°
2026-04-16 17:12 48.05306 -77.78696 1111 ft 10 kts 112°
2026-04-16 17:12 48.05179 -77.78535 1111 ft 12 kts 268°
2026-04-16 17:12 48.05184 -77.78549 1111 ft 0 kts 326°